createdAt,value
2022-12-08T00:09:42.625Z,102246.41
2022-12-08T00:19:47.112Z,102239.13
2022-12-08T00:29:50.662Z,102239.31
2022-12-08T00:39:55.283Z,102236.47
2022-12-08T00:49:58.412Z,102228.84
2022-12-08T01:00:03.110Z,102229.09
2022-12-08T01:10:07.887Z,102226.97
2022-12-08T01:20:12.633Z,102220.88
2022-12-08T01:30:15.683Z,102221.44
2022-12-08T01:40:20.218Z,102217.25
2022-12-08T01:50:24.125Z,102217.06
2022-12-08T02:00:29.061Z,102214.69
2022-12-08T02:10:34.957Z,102210.88
2022-12-08T02:20:53.985Z,102207.97
2022-12-08T02:31:10.003Z,102208.44
2022-12-08T02:41:24.167Z,102206.75
2022-12-08T02:51:27.283Z,102202.63
2022-12-08T03:01:49.819Z,102191.41
2022-12-08T03:12:02.433Z,102183.22
2022-12-08T03:22:07.737Z,102176.09
2022-12-08T03:32:21.641Z,102175.28
2022-12-08T03:42:26.084Z,102175.06
2022-12-08T03:52:29.072Z,102175.09
2022-12-08T04:02:34.530Z,102175.34
2022-12-08T04:12:37.515Z,102174.91
2022-12-08T04:22:41.879Z,102173.31
2022-12-08T04:32:47.786Z,102169.19
2022-12-08T04:42:52.894Z,102163.06
2022-12-08T04:52:55.824Z,102161.63
2022-12-08T05:03:00.368Z,102158.56
2022-12-08T05:13:03.936Z,102151.81
2022-12-08T05:23:08.275Z,102144.19
2022-12-08T05:33:11.348Z,102137.16
2022-12-08T05:43:18.822Z,102136.72
2022-12-08T05:53:22.060Z,102128.41
2022-12-08T06:03:26.813Z,102115.72
2022-12-08T06:13:30.063Z,102109.88
2022-12-08T06:23:39.164Z,102102.84
2022-12-08T06:33:42.826Z,102097.22
2022-12-08T06:43:47.412Z,102091.53
2022-12-08T06:53:50.947Z,102087.25
2022-12-08T07:03:55.423Z,102087.78
2022-12-08T07:13:58.470Z,102087.25
2022-12-08T07:24:03.020Z,102087.63
2022-12-08T07:34:05.930Z,102087.56
2022-12-08T07:44:13.518Z,102084.69
2022-12-08T07:54:16.572Z,102079.75
2022-12-08T08:04:20.854Z,102078.06
2022-12-08T08:14:23.687Z,102075.31
2022-12-08T08:24:28.079Z,102070.50
2022-12-08T08:34:31.274Z,102069.84
2022-12-08T08:44:35.782Z,102063.19
2022-12-08T08:54:38.855Z,102060.59
2022-12-08T09:04:43.815Z,102058.31
2022-12-08T09:14:47.213Z,102055.88
2022-12-08T09:24:51.460Z,102051.13
2022-12-08T09:34:54.576Z,102046.94
2022-12-08T09:45:06.224Z,102043.75
2022-12-08T09:55:18.279Z,102040.00
2022-12-08T10:05:24.759Z,102036.28
2022-12-08T10:15:41.168Z,102030.91
2022-12-08T10:25:46.681Z,102026.41
2022-12-08T10:35:51.415Z,102021.63
2022-12-08T10:46:07.971Z,102015.16
2022-12-08T10:56:15.874Z,102002.38
2022-12-08T11:06:24.164Z,101990.44
2022-12-08T11:16:28.279Z,101975.75
2022-12-08T11:26:35.672Z,101964.72
2022-12-08T11:36:39.499Z,101954.44
2022-12-08T11:46:49.176Z,101947.66
2022-12-08T11:56:54.765Z,101941.84
2022-12-08T12:07:25.858Z,101934.13
2022-12-08T12:17:41.788Z,101923.88
2022-12-08T12:27:47.299Z,101914.47
2022-12-08T12:37:50.210Z,101904.94
2022-12-08T12:48:21.676Z,101896.38
2022-12-08T12:58:38.641Z,101882.72
2022-12-08T13:08:52.206Z,101875.03
2022-12-08T13:18:59.752Z,101867.19
2022-12-08T13:29:18.820Z,101855.91
2022-12-08T13:39:26.969Z,101845.50
2022-12-08T14:00:01.749Z,101830.44
2022-12-08T14:10:08.952Z,101823.06
2022-12-08T14:20:22.648Z,101816.78
2022-12-08T14:30:31.312Z,101806.53
2022-12-08T14:40:36.351Z,101798.91
2022-12-08T14:50:54.652Z,101792.59
2022-12-08T15:00:59.833Z,101787.19
2022-12-08T15:11:30.717Z,101782.94
2022-12-08T15:21:38.477Z,101774.72
2022-12-08T15:31:42.841Z,101772.34
2022-12-08T15:41:45.767Z,101768.00
2022-12-08T15:51:50.552Z,101763.44
2022-12-08T16:01:53.534Z,101759.34
2022-12-08T16:12:16.650Z,101754.59
2022-12-08T16:32:46.681Z,101747.63
2022-12-08T16:42:50.536Z,101743.59
2022-12-08T16:52:59.461Z,101736.22
2022-12-08T17:03:02.848Z,101730.34
2022-12-08T17:13:07.704Z,101726.19
2022-12-08T17:23:10.987Z,101718.38
2022-12-08T17:33:15.563Z,101710.50
2022-12-08T17:43:18.513Z,101697.81
2022-12-08T17:53:23.759Z,101692.53
2022-12-08T18:03:27.428Z,101683.13
2022-12-08T18:13:32.454Z,101678.47
2022-12-08T18:23:36.929Z,101673.44
2022-12-08T18:33:42.393Z,101668.31
2022-12-08T18:43:45.622Z,101664.03
2022-12-08T18:53:52.905Z,101660.09
2022-12-08T19:04:26.914Z,101641.88
2022-12-08T19:14:27.708Z,101630.94
2022-12-08T19:24:39.240Z,101630.81
2022-12-08T19:34:47.959Z,101626.28
2022-12-08T19:44:53.705Z,101625.56
2022-12-08T19:54:58.237Z,101620.75
2022-12-08T20:05:01.216Z,101619.84
2022-12-08T20:15:11.786Z,101617.34
2022-12-08T20:25:17.882Z,101616.06
2022-12-08T20:35:22.658Z,101616.72
2022-12-08T20:45:25.573Z,101616.69
2022-12-08T20:55:30.050Z,101617.25
2022-12-08T21:05:35.694Z,101616.91
2022-12-08T21:15:45.100Z,101616.88
2022-12-08T21:25:48.624Z,101616.56
2022-12-08T21:36:02.258Z,101614.75
2022-12-08T21:46:07.009Z,101611.00
2022-12-08T21:56:11.782Z,101603.44
2022-12-08T22:06:15.234Z,101603.84
2022-12-08T22:16:19.921Z,101598.16
2022-12-08T22:26:23.362Z,101598.94
2022-12-08T22:36:30.510Z,101600.25
2022-12-08T22:46:34.266Z,101601.09
2022-12-08T22:56:38.933Z,101601.78
2022-12-08T23:06:42.274Z,101601.94
2022-12-08T23:16:46.699Z,101602.34
2022-12-08T23:26:52.863Z,101599.38
2022-12-08T23:36:57.254Z,101600.81
2022-12-08T23:47:00.324Z,101602.56
2022-12-08T23:57:04.932Z,101604.28
